オウル の空港の天気 - METARとTAF

オウル空港 ( EFOU / OUL ) - フィンランド Oulunsalo
飛行場実況気象(Metar)
観測時間11/16 18:20 EET (11/16 16:20 UTC)
風向・風速西南西 4m/s
視程10km以上
天気現象
全天を覆う雲 雲底高度 210m
気温6℃
湿度93%
気圧1022hPa
METAREFOU 161620Z AUTO 25008KT 220V290 9999 OVC007/// 06/05 Q1022
過去の天気等 Google飛行場航空写真 Wunderground天気予報

過去48時間のMETAR

飛行場予報(TAF)
発表時間: 11/16 17:53 EET (11/16 15:53 UTC)
予報対象時間: 16日17時 EET ~ 17日17時 EET
風向・風速西南西 8m/s
視程10km以上
全天の8割程度の雲 雲底高度 240m
16日18時 EET ~ 16日20時 EET に徐々に
少しの雲 雲底高度 460m
17日2時 EET ~ 17日6時 EET に一時的に
風向・風速西 8m/s 瞬間風速 13m/s
17日6時 EET ~ 17日8時 EET に徐々に
風向・風速西北西 8m/s
17日6時 EET ~ 17日17時 EET に一時的に
風向・風速北西 9m/s 瞬間風速 15m/s
TAF AMD EFOU 161553Z 1615/1715 24015KT 9999 BKN008
BECMG 1616/1618 FEW015
TEMPO 1700/1704 27015G25KT
BECMG 1704/1706 30015KT
TEMPO 1704/1715 32018G30KT